Time,TemperatureF,DewpointF,PressureIn,WindDirection,WindDirectionDegrees,WindSpeedMPH,WindSpeedGustMPH,Humidity,HourlyPrecipIn,Conditions,Clouds,dailyrainin,SolarRadiationWatts/m^2,SoftwareType,DateUTC
2013-10-09 00:04:00,71.0,66.0,-100.00,ENE,71,3.0,11.0,85,0.00,,,0.00,0.000000,,2013-10-09 05:04:00,
2013-10-09 00:13:00,71.0,66.0,-100.00,ENE,71,3.0,11.0,85,0.00,,,0.00,0.000000,,2013-10-09 05:13:00,
2013-10-09 00:42:00,69.0,65.0,-100.00,ENE,68,3.0,9.0,87,0.00,,,0.00,0.000000,,2013-10-09 05:42:00,
2013-10-09 00:52:00,69.0,65.0,-100.00,ENE,68,3.0,9.0,87,0.00,,,0.00,0.000000,,2013-10-09 05:52:00,
2013-10-09 01:02:00,69.0,65.0,-100.00,ENE,68,3.0,9.0,87,0.00,,,0.00,0.000000,,2013-10-09 06:02:00,
2013-10-09 01:12:00,69.0,65.0,-100.00,ENE,68,3.0,9.0,87,0.00,,,0.00,0.000000,,2013-10-09 06:12:00,
2013-10-09 01:42:00,68.0,64.0,-100.00,ENE,60,3.0,9.0,88,0.00,,,0.00,0.000000,,2013-10-09 06:42:00,
2013-10-09 01:52:00,68.0,64.0,-100.00,ENE,60,3.0,9.0,88,0.00,,,0.00,0.000000,,2013-10-09 06:52:00,
2013-10-09 02:02:00,68.0,64.0,-100.00,ENE,60,3.0,9.0,88,0.00,,,0.00,0.000000,,2013-10-09 07:02:00,
2013-10-09 02:12:00,68.0,64.0,-100.00,ENE,60,3.0,9.0,88,0.00,,,0.00,0.000000,,2013-10-09 07:12:00,
2013-10-09 02:42:00,66.0,63.0,-100.00,ENE,78,3.0,8.0,91,0.00,,,0.00,0.000000,,2013-10-09 07:42:00,
2013-10-09 02:52:00,66.0,63.0,-100.00,ENE,78,3.0,8.0,91,0.00,,,0.00,0.000000,,2013-10-09 07:52:00,
2013-10-09 03:02:00,66.0,63.0,-100.00,ENE,78,3.0,8.0,91,0.00,,,0.00,0.000000,,2013-10-09 08:02:00,
2013-10-09 03:12:00,66.0,63.0,-100.00,ENE,78,3.0,8.0,91,0.00,,,0.00,0.000000,,2013-10-09 08:12:00,
2013-10-09 03:42:00,65.0,62.0,-100.00,ENE,73,3.0,7.0,91,0.00,,,-99.99,0.000000,,2013-10-09 08:42:00,
2013-10-09 03:53:00,65.0,62.0,-100.00,ENE,73,3.0,7.0,91,0.00,,,-99.99,0.000000,,2013-10-09 08:53:00,
2013-10-09 04:02:00,65.0,62.0,-100.00,ENE,73,3.0,7.0,91,0.00,,,-99.99,0.000000,,2013-10-09 09:02:00,
2013-10-09 04:11:00,65.0,62.0,-100.00,ENE,73,3.0,7.0,91,0.00,,,-99.99,0.000000,,2013-10-09 09:11:00,
2013-10-09 04:43:00,63.0,61.0,-100.00,ENE,68,3.0,7.0,94,0.00,,,0.00,0.000000,,2013-10-09 09:43:00,
2013-10-09 04:53:00,63.0,61.0,-100.00,ENE,68,3.0,7.0,94,0.00,,,0.00,0.000000,,2013-10-09 09:53:00,
2013-10-09 05:03:00,63.0,61.0,-100.00,ENE,68,3.0,7.0,94,0.00,,,0.00,0.000000,,2013-10-09 10:03:00,
2013-10-09 05:13:00,63.0,61.0,-100.00,ENE,68,3.0,7.0,94,0.00,,,0.00,0.000000,,2013-10-09 10:13:00,
2013-10-09 05:43:00,62.0,60.0,-100.00,NE,53,3.0,7.0,94,0.00,,,0.00,0.000000,,2013-10-09 10:43:00,
2013-10-09 05:53:00,62.0,60.0,-100.00,NE,53,3.0,7.0,94,0.00,,,0.00,0.000000,,2013-10-09 10:53:00,
2013-10-09 06:02:00,62.0,60.0,-100.00,NE,53,3.0,7.0,94,0.00,,,0.00,0.000000,,2013-10-09 11:02:00,
2013-10-09 06:12:00,62.0,60.0,-100.00,NE,53,3.0,7.0,94,0.00,,,0.00,0.000000,,2013-10-09 11:12:00,
2013-10-09 06:42:00,62.0,60.0,-100.00,ENE,61,2.0,8.0,94,0.00,,,0.00,0.000000,,2013-10-09 11:42:00,
2013-10-09 06:52:00,62.0,60.0,-100.00,ENE,61,2.0,8.0,94,0.00,,,0.00,0.000000,,2013-10-09 11:52:00,
2013-10-09 07:01:00,62.0,60.0,-100.00,ENE,61,2.0,8.0,94,0.00,,,0.00,0.000000,,2013-10-09 12:01:00,
2013-10-09 07:12:00,62.0,60.0,-100.00,ENE,61,2.0,8.0,94,0.00,,,0.00,0.000000,,2013-10-09 12:12:00,
2013-10-09 07:42:00,62.0,60.0,-100.00,ENE,69,4.0,10.0,94,0.00,,,0.00,3.000000,,2013-10-09 12:42:00,
2013-10-09 07:52:00,62.0,60.0,-100.00,ENE,69,4.0,10.0,94,0.00,,,0.00,3.000000,,2013-10-09 12:52:00,
2013-10-09 08:02:00,62.0,60.0,-100.00,ENE,69,4.0,10.0,94,0.00,,,0.00,3.000000,,2013-10-09 13:02:00,
2013-10-09 08:11:00,62.0,60.0,-100.00,ENE,69,4.0,10.0,94,0.00,,,0.00,3.000000,,2013-10-09 13:11:00,
2013-10-09 08:42:00,63.0,62.0,-100.00,ENE,77,4.0,10.0,95,0.00,,,0.00,26.000000,,2013-10-09 13:42:00,
2013-10-09 08:52:00,63.0,62.0,-100.00,ENE,77,4.0,10.0,95,0.00,,,0.00,26.000000,,2013-10-09 13:52:00,
2013-10-09 09:02:00,63.0,62.0,-100.00,ENE,77,4.0,10.0,95,0.00,,,0.00,26.000000,,2013-10-09 14:02:00,
2013-10-09 09:11:00,63.0,62.0,-100.00,ENE,77,4.0,10.0,95,0.00,,,0.00,26.000000,,2013-10-09 14:11:00,
2013-10-09 09:42:00,64.0,62.0,-100.00,East,89,5.0,13.0,92,0.00,,,0.00,56.000000,,2013-10-09 14:42:00,
2013-10-09 09:52:00,64.0,62.0,-100.00,East,89,5.0,13.0,92,0.00,,,0.00,56.000000,,2013-10-09 14:52:00,
2013-10-09 10:02:00,64.0,62.0,-100.00,East,89,5.0,13.0,92,0.00,,,0.00,56.000000,,2013-10-09 15:02:00,
2013-10-09 10:11:00,64.0,62.0,-100.00,East,89,5.0,13.0,92,0.00,,,0.00,56.000000,,2013-10-09 15:11:00,
2013-10-09 10:43:00,65.0,62.0,-100.00,ENE,69,4.0,10.0,90,0.00,,,0.00,93.000000,,2013-10-09 15:43:00,
2013-10-09 10:53:00,65.0,62.0,-100.00,ENE,69,4.0,10.0,90,0.00,,,0.00,93.000000,,2013-10-09 15:53:00,
2013-10-09 11:03:00,65.0,62.0,-100.00,ENE,69,4.0,10.0,90,0.00,,,0.00,93.000000,,2013-10-09 16:03:00,
2013-10-09 11:13:00,65.0,62.0,-100.00,ENE,69,4.0,10.0,90,0.00,,,0.00,93.000000,,2013-10-09 16:13:00,
2013-10-09 11:42:00,66.0,61.0,-100.00,ENE,66,4.0,10.0,84,0.00,,,0.00,176.000000,,2013-10-09 16:42:00,
2013-10-09 11:53:00,66.0,61.0,-100.00,ENE,66,4.0,10.0,84,0.00,,,0.00,176.000000,,2013-10-09 16:53:00,
2013-10-09 12:03:00,66.0,61.0,-100.00,ENE,66,4.0,10.0,84,0.00,,,0.00,176.000000,,2013-10-09 17:03:00,
2013-10-09 12:12:00,66.0,61.0,-100.00,ENE,66,4.0,10.0,84,0.00,,,0.00,176.000000,,2013-10-09 17:12:00,
2013-10-09 12:42:00,69.0,62.0,-100.00,ENE,59,3.0,8.0,78,0.00,,,0.00,285.000000,,2013-10-09 17:42:00,
2013-10-09 12:52:00,69.0,62.0,-100.00,ENE,59,3.0,8.0,78,0.00,,,0.00,285.000000,,2013-10-09 17:52:00,
2013-10-09 13:02:00,69.0,62.0,-100.00,ENE,59,3.0,8.0,78,0.00,,,0.00,285.000000,,2013-10-09 18:02:00,
2013-10-09 13:12:00,69.0,62.0,-100.00,ENE,59,3.0,8.0,78,0.00,,,0.00,285.000000,,2013-10-09 18:12:00,
2013-10-09 13:42:00,70.0,62.0,-100.00,NE,48,1.0,8.0,77,0.00,,,0.00,274.000000,,2013-10-09 18:42:00,
2013-10-09 13:52:00,70.0,62.0,-100.00,NE,48,1.0,8.0,77,0.00,,,0.00,274.000000,,2013-10-09 18:52:00,
2013-10-09 14:02:00,70.0,62.0,-100.00,NE,48,1.0,8.0,77,0.00,,,0.00,274.000000,,2013-10-09 19:02:00,
2013-10-09 14:11:00,70.0,62.0,-100.00,NE,48,1.0,8.0,77,0.00,,,0.00,274.000000,,2013-10-09 19:11:00,
2013-10-09 14:42:00,72.0,63.0,-100.00,NNE,21,3.0,9.0,74,0.00,,,0.00,291.000000,,2013-10-09 19:42:00,
2013-10-09 14:53:00,72.0,63.0,-100.00,NNE,21,3.0,9.0,74,0.00,,,0.00,291.000000,,2013-10-09 19:53:00,
2013-10-09 15:02:00,72.0,63.0,-100.00,NNE,21,3.0,9.0,74,0.00,,,0.00,291.000000,,2013-10-09 20:02:00,
2013-10-09 15:11:00,72.0,63.0,-100.00,NNE,21,3.0,9.0,74,0.00,,,0.00,291.000000,,2013-10-09 20:11:00,
2013-10-09 15:43:00,72.0,64.0,-100.00,NE,38,3.0,8.0,75,0.00,,,0.00,312.000000,,2013-10-09 20:43:00,
2013-10-09 15:52:00,72.0,64.0,-100.00,NE,38,3.0,8.0,75,0.00,,,0.00,312.000000,,2013-10-09 20:52:00,
2013-10-09 16:02:00,72.0,64.0,-100.00,NE,38,3.0,8.0,75,0.00,,,0.00,312.000000,,2013-10-09 21:02:00,
2013-10-09 16:11:00,72.0,64.0,-100.00,NE,38,3.0,8.0,75,0.00,,,0.00,312.000000,,2013-10-09 21:11:00,
2013-10-09 16:44:00,70.0,63.0,-100.00,ENE,67,1.0,8.0,78,0.00,,,0.00,178.000000,,2013-10-09 21:44:00,
2013-10-09 16:54:00,70.0,63.0,-100.00,ENE,67,1.0,8.0,78,0.00,,,0.00,178.000000,,2013-10-09 21:54:00,
2013-10-09 17:03:00,70.0,63.0,-100.00,ENE,67,1.0,8.0,78,0.00,,,0.00,178.000000,,2013-10-09 22:03:00,
2013-10-09 17:13:00,70.0,63.0,-100.00,ENE,67,1.0,8.0,78,0.00,,,0.00,178.000000,,2013-10-09 22:13:00,
2013-10-09 17:43:00,69.0,63.0,-100.00,NE,34,1.0,5.0,81,0.00,,,0.00,95.000000,,2013-10-09 22:43:00,
2013-10-09 17:53:00,69.0,63.0,-100.00,NE,34,1.0,5.0,81,0.00,,,0.00,95.000000,,2013-10-09 22:53:00,
2013-10-09 18:03:00,69.0,63.0,-100.00,NE,34,1.0,5.0,81,0.00,,,0.00,95.000000,,2013-10-09 23:03:00,
2013-10-09 18:12:00,69.0,63.0,-100.00,NE,34,1.0,5.0,81,0.00,,,0.00,95.000000,,2013-10-09 23:12:00,
2013-10-09 18:43:00,68.0,63.0,-100.00,NE,42,1.0,7.0,84,0.00,,,0.00,21.000000,,2013-10-09 23:43:00,
2013-10-09 18:53:00,68.0,63.0,-100.00,NE,42,1.0,7.0,84,0.00,,,0.00,21.000000,,2013-10-09 23:53:00,
2013-10-09 19:02:00,68.0,63.0,-100.00,NE,42,1.0,7.0,84,0.00,,,0.00,21.000000,,2013-10-10 00:02:00,
2013-10-09 19:12:00,68.0,63.0,-100.00,NE,42,1.0,7.0,84,0.00,,,0.00,21.000000,,2013-10-10 00:12:00,
2013-10-09 19:42:00,67.0,63.0,-100.00,NNW,348,0.0,5.0,86,0.00,,,0.00,0.000000,,2013-10-10 00:42:00,
2013-10-09 19:52:00,67.0,63.0,-100.00,NNW,348,0.0,5.0,86,0.00,,,0.00,0.000000,,2013-10-10 00:52:00,
2013-10-09 20:02:00,67.0,63.0,-100.00,NNW,348,0.0,5.0,86,0.00,,,0.00,0.000000,,2013-10-10 01:02:00,
2013-10-09 20:11:00,67.0,63.0,-100.00,NNW,348,0.0,5.0,86,0.00,,,0.00,0.000000,,2013-10-10 01:11:00,
2013-10-09 20:42:00,66.0,62.0,-100.00,North,357,0.0,0.0,88,0.00,,,0.00,0.000000,,2013-10-10 01:42:00,
2013-10-09 20:52:00,66.0,62.0,-100.00,North,357,0.0,0.0,88,0.00,,,0.00,0.000000,,2013-10-10 01:52:00,
2013-10-09 21:02:00,66.0,62.0,-100.00,North,357,0.0,0.0,88,0.00,,,0.00,0.000000,,2013-10-10 02:02:00,
2013-10-09 21:12:00,66.0,62.0,-100.00,North,357,0.0,0.0,88,0.00,,,0.00,0.000000,,2013-10-10 02:12:00,
2013-10-09 21:52:00,64.0,62.0,-100.00,NNW,348,0.0,0.0,93,0.00,,,0.00,0.000000,,2013-10-10 02:52:00,
2013-10-09 22:02:00,64.0,62.0,-100.00,NNW,348,0.0,0.0,93,0.00,,,0.00,0.000000,,2013-10-10 03:02:00,
2013-10-09 22:12:00,64.0,62.0,-100.00,NNW,348,0.0,0.0,93,0.00,,,0.00,0.000000,,2013-10-10 03:12:00,
2013-10-09 22:44:00,63.0,62.0,-100.00,North,351,0.0,0.0,96,0.00,,,0.00,0.000000,,2013-10-10 03:44:00,
2013-10-09 22:55:00,63.0,62.0,-100.00,North,351,0.0,0.0,96,0.00,,,0.00,0.000000,,2013-10-10 03:55:00,
2013-10-09 23:04:00,63.0,62.0,-100.00,North,351,0.0,0.0,96,0.00,,,0.00,0.000000,,2013-10-10 04:04:00,
2013-10-09 23:13:00,63.0,62.0,-100.00,North,351,0.0,0.0,96,0.00,,,0.00,0.000000,,2013-10-10 04:13:00,
2013-10-09 23:54:00,61.0,60.0,-100.00,NNW,330,0.0,0.0,97,0.00,,,0.00,0.000000,,2013-10-10 04:54:00,